sensor_id;sensor_type;location;lat;lon;timestamp;pressure;altitude;pressure_sealevel;temperature;humidity
61205;BME280;47068;55.780;37.520;2023-04-16T00:00:36;101381.88;;;6.19;24.65
61205;BME280;47068;55.780;37.520;2023-04-16T00:03:02;101357.94;;;6.08;24.86
61205;BME280;47068;55.780;37.520;2023-04-16T00:05:27;101414.16;;;6.38;24.84
61205;BME280;47068;55.780;37.520;2023-04-16T00:07:53;101411.91;;;6.32;24.57
61205;BME280;47068;55.780;37.520;2023-04-16T00:10:18;101424.00;;;6.36;24.76
61205;BME280;47068;55.780;37.520;2023-04-16T00:12:44;101421.69;;;6.30;24.83
61205;BME280;47068;55.780;37.520;2023-04-16T00:15:09;101415.47;;;6.31;25.33
61205;BME280;47068;55.780;37.520;2023-04-16T00:17:35;101421.06;;;6.26;25.16
61205;BME280;47068;55.780;37.520;2023-04-16T00:20:00;101396.31;;;5.99;25.36
61205;BME280;47068;55.780;37.520;2023-04-16T00:22:26;101412.75;;;6.18;25.27
61205;BME280;47068;55.780;37.520;2023-04-16T00:24:51;101420.59;;;6.20;25.14
61205;BME280;47068;55.780;37.520;2023-04-16T00:27:18;101425.66;;;6.23;25.18
61205;BME280;47068;55.780;37.520;2023-04-16T00:29:44;101417.00;;;6.21;25.55
61205;BME280;47068;55.780;37.520;2023-04-16T00:32:09;101427.84;;;6.16;25.79
61205;BME280;47068;55.780;37.520;2023-04-16T00:34:36;101422.66;;;6.15;25.84
61205;BME280;47068;55.780;37.520;2023-04-16T00:37:01;101410.94;;;6.05;25.63
61205;BME280;47068;55.780;37.520;2023-04-16T00:39:27;101430.47;;;6.16;25.75
61205;BME280;47068;55.780;37.520;2023-04-16T00:41:52;101403.97;;;6.04;25.76
61205;BME280;47068;55.780;37.520;2023-04-16T00:44:18;101427.97;;;6.15;25.96
61205;BME280;47068;55.780;37.520;2023-04-16T00:46:44;101413.41;;;6.08;25.75
61205;BME280;47068;55.780;37.520;2023-04-16T00:49:10;101400.19;;;5.93;25.87
61205;BME280;47068;55.780;37.520;2023-04-16T00:51:36;101425.78;;;6.07;26.34
61205;BME280;47068;55.780;37.520;2023-04-16T00:54:02;101428.50;;;6.06;25.85
61205;BME280;47068;55.780;37.520;2023-04-16T00:56:28;101429.16;;;6.09;26.01
61205;BME280;47068;55.780;37.520;2023-04-16T00:58:54;101380.72;;;5.80;26.18
61205;BME280;47068;55.780;37.520;2023-04-16T01:01:21;101430.94;;;6.09;26.28
61205;BME280;47068;55.780;37.520;2023-04-16T01:03:47;101403.94;;;5.89;26.52
61205;BME280;47068;55.780;37.520;2023-04-16T01:06:14;101414.03;;;5.97;26.41
61205;BME280;47068;55.780;37.520;2023-04-16T01:08:41;101418.69;;;5.93;26.50
61205;BME280;47068;55.780;37.520;2023-04-16T01:11:07;101392.09;;;5.81;26.30
61205;BME280;47068;55.780;37.520;2023-04-16T01:13:33;101373.13;;;5.74;26.30
61205;BME280;47068;55.780;37.520;2023-04-16T01:15:59;101421.50;;;6.05;26.33
61205;BME280;47068;55.780;37.520;2023-04-16T01:18:25;101414.16;;;6.10;26.22
61205;BME280;47068;55.780;37.520;2023-04-16T01:20:51;101401.16;;;6.07;26.24
61205;BME280;47068;55.780;37.520;2023-04-16T01:23:17;101413.78;;;6.16;26.06
61205;BME280;47068;55.780;37.520;2023-04-16T01:25:43;101410.97;;;6.19;26.31
61205;BME280;47068;55.780;37.520;2023-04-16T01:28:09;101416.41;;;6.16;26.24
61205;BME280;47068;55.780;37.520;2023-04-16T01:30:34;101413.03;;;6.14;26.37
61205;BME280;47068;55.780;37.520;2023-04-16T01:33:00;101405.75;;;6.03;26.17
61205;BME280;47068;55.780;37.520;2023-04-16T01:35:25;101187.66;;;4.70;26.67
61205;BME280;47068;55.780;37.520;2023-04-16T01:37:51;101366.91;;;5.75;26.35
61205;BME280;47068;55.780;37.520;2023-04-16T01:40:17;101404.63;;;6.07;26.82
61205;BME280;47068;55.780;37.520;2023-04-16T01:42:43;101404.63;;;6.07;26.25
61205;BME280;47068;55.780;37.520;2023-04-16T01:45:09;101412.84;;;6.17;26.33
61205;BME280;47068;55.780;37.520;2023-04-16T01:47:34;101414.75;;;6.15;26.00
61205;BME280;47068;55.780;37.520;2023-04-16T01:50:00;101415.47;;;6.17;25.96
61205;BME280;47068;55.780;37.520;2023-04-16T01:52:26;101418.13;;;6.17;26.10
61205;BME280;47068;55.780;37.520;2023-04-16T01:54:51;101392.81;;;5.99;26.37
61205;BME280;47068;55.780;37.520;2023-04-16T01:57:17;101396.03;;;6.04;26.10
61205;BME280;47068;55.780;37.520;2023-04-16T01:59:42;101422.84;;;6.12;26.78
61205;BME280;47068;55.780;37.520;2023-04-16T02:02:09;101413.59;;;6.05;26.77
61205;BME280;47068;55.780;37.520;2023-04-16T02:04:39;101418.59;;;6.09;26.69
61205;BME280;47068;55.780;37.520;2023-04-16T02:07:06;101428.31;;;6.09;26.58
61205;BME280;47068;55.780;37.520;2023-04-16T02:09:35;101419.44;;;6.10;26.58
61205;BME280;47068;55.780;37.520;2023-04-16T02:12:01;101402.63;;;5.97;26.88
61205;BME280;47068;55.780;37.520;2023-04-16T02:14:27;101420.66;;;6.04;26.99
61205;BME280;47068;55.780;37.520;2023-04-16T02:16:53;101399.06;;;5.98;26.91
61205;BME280;47068;55.780;37.520;2023-04-16T02:19:18;101423.00;;;6.09;26.82
61205;BME280;47068;55.780;37.520;2023-04-16T02:21:43;101417.72;;;6.09;26.88
61205;BME280;47068;55.780;37.520;2023-04-16T02:24:09;101420.38;;;5.95;26.93
61205;BME280;47068;55.780;37.520;2023-04-16T02:26:35;101383.69;;;5.74;27.14
61205;BME280;47068;55.780;37.520;2023-04-16T02:29:00;101424.34;;;5.87;26.67
61205;BME280;47068;55.780;37.520;2023-04-16T02:31:26;101389.47;;;5.67;26.64
61205;BME280;47068;55.780;37.520;2023-04-16T02:33:52;101418.63;;;5.79;26.95
61205;BME280;47068;55.780;37.520;2023-04-16T02:36:18;101376.47;;;5.48;26.95
61205;BME280;47068;55.780;37.520;2023-04-16T02:38:43;101413.78;;;5.72;26.92
61205;BME280;47068;55.780;37.520;2023-04-16T02:41:09;101393.66;;;5.55;27.09
61205;BME280;47068;55.780;37.520;2023-04-16T02:43:34;101400.72;;;5.54;27.42
61205;BME280;47068;55.780;37.520;2023-04-16T02:46:00;101419.00;;;5.73;27.15
61205;BME280;47068;55.780;37.520;2023-04-16T02:48:25;101405.56;;;5.62;27.24
61205;BME280;47068;55.780;37.520;2023-04-16T02:50:51;101425.69;;;5.79;27.18
61205;BME280;47068;55.780;37.520;2023-04-16T02:53:16;101404.69;;;5.62;27.05
61205;BME280;47068;55.780;37.520;2023-04-16T02:55:49;101426.97;;;5.87;27.19
61205;BME280;47068;55.780;37.520;2023-04-16T02:58:16;101423.53;;;5.85;27.20
61205;BME280;47068;55.780;37.520;2023-04-16T03:00:42;101389.69;;;5.48;27.46
61205;BME280;47068;55.780;37.520;2023-04-16T03:03:07;101436.50;;;5.74;27.51
61205;BME280;47068;55.780;37.520;2023-04-16T03:05:33;101438.81;;;5.80;27.11
61205;BME280;47068;55.780;37.520;2023-04-16T03:07:59;101427.56;;;5.77;27.30
61205;BME280;47068;55.780;37.520;2023-04-16T03:10:24;101412.25;;;5.68;27.38
61205;BME280;47068;55.780;37.520;2023-04-16T03:12:50;101390.38;;;5.51;27.28
61205;BME280;47068;55.780;37.520;2023-04-16T03:15:15;101438.81;;;5.80;27.81
61205;BME280;47068;55.780;37.520;2023-04-16T03:17:41;101429.28;;;5.78;27.85
61205;BME280;47068;55.780;37.520;2023-04-16T03:20:06;101442.97;;;5.84;27.43
61205;BME280;47068;55.780;37.520;2023-04-16T03:22:32;101434.91;;;5.87;27.60
61205;BME280;47068;55.780;37.520;2023-04-16T03:24:57;101400.69;;;5.70;27.49
61205;BME280;47068;55.780;37.520;2023-04-16T03:27:23;101431.63;;;5.82;27.68
61205;BME280;47068;55.780;37.520;2023-04-16T03:29:48;101433.78;;;5.91;27.57
61205;BME280;47068;55.780;37.520;2023-04-16T03:32:14;101437.06;;;5.95;27.79
61205;BME280;47068;55.780;37.520;2023-04-16T03:34:39;101417.50;;;5.83;27.65
61205;BME280;47068;55.780;37.520;2023-04-16T03:37:05;101431.53;;;6.00;27.66
61205;BME280;47068;55.780;37.520;2023-04-16T03:39:32;101439.72;;;6.09;27.81
61205;BME280;47068;55.780;37.520;2023-04-16T03:41:58;101432.66;;;6.24;27.50
61205;BME280;47068;55.780;37.520;2023-04-16T03:44:24;101436.63;;;6.31;27.22
61205;BME280;47068;55.780;37.520;2023-04-16T03:46:49;101436.38;;;6.36;27.48
61205;BME280;47068;55.780;37.520;2023-04-16T03:49:14;101415.47;;;6.17;27.35
61205;BME280;47068;55.780;37.520;2023-04-16T03:51:40;101436.38;;;6.36;27.41
61205;BME280;47068;55.780;37.520;2023-04-16T03:54:05;101432.00;;;6.49;27.03
61205;BME280;47068;55.780;37.520;2023-04-16T03:56:31;101427.44;;;6.65;27.14
61205;BME280;47068;55.780;37.520;2023-04-16T03:58:56;101444.22;;;6.78;26.87
61205;BME280;47068;55.780;37.520;2023-04-16T04:01:22;101432.78;;;6.92;26.40
61205;BME280;47068;55.780;37.520;2023-04-16T04:03:47;101445.94;;;7.20;25.97
61205;BME280;47068;55.780;37.520;2023-04-16T04:06:12;101450.72;;;7.28;25.99
61205;BME280;47068;55.780;37.520;2023-04-16T04:08:38;101408.22;;;7.17;26.19
61205;BME280;47068;55.780;37.520;2023-04-16T04:11:03;101445.50;;;7.80;25.59
61205;BME280;47068;55.780;37.520;2023-04-16T04:13:29;101427.72;;;8.33;25.10
61205;BME280;47068;55.780;37.520;2023-04-16T04:15:54;101430.25;;;8.47;23.94
61205;BME280;47068;55.780;37.520;2023-04-16T04:18:20;101418.16;;;8.55;23.94
61205;BME280;47068;55.780;37.520;2023-04-16T04:20:45;101425.44;;;8.77;23.61
61205;BME280;47068;55.780;37.520;2023-04-16T04:23:11;101428.81;;;8.79;24.07
61205;BME280;47068;55.780;37.520;2023-04-16T04:25:36;101395.03;;;8.45;24.83
61205;BME280;47068;55.780;37.520;2023-04-16T04:28:01;101429.38;;;8.59;24.94
61205;BME280;47068;55.780;37.520;2023-04-16T04:30:27;101436.59;;;8.69;24.21
61205;BME280;47068;55.780;37.520;2023-04-16T04:32:52;101402.41;;;8.65;23.81
61205;BME280;47068;55.780;37.520;2023-04-16T04:35:18;101268.47;;;7.85;23.98
61205;BME280;47068;55.780;37.520;2023-04-16T04:37:43;101419.81;;;8.69;23.17
61205;BME280;47068;55.780;37.520;2023-04-16T04:40:09;101424.88;;;8.72;23.23
61205;BME280;47068;55.780;37.520;2023-04-16T04:42:37;101368.31;;;8.35;23.70
61205;BME280;47068;55.780;37.520;2023-04-16T04:45:05;101399.13;;;8.61;24.04
61205;BME280;47068;55.780;37.520;2023-04-16T04:47:33;101431.59;;;9.01;23.99
61205;BME280;47068;55.780;37.520;2023-04-16T04:49:58;101428.66;;;8.93;23.07
61205;BME280;47068;55.780;37.520;2023-04-16T04:52:24;101434.31;;;8.89;22.88
61205;BME280;47068;55.780;37.520;2023-04-16T04:54:50;101435.38;;;8.86;23.34
61205;BME280;47068;55.780;37.520;2023-04-16T04:57:15;101427.59;;;8.96;22.92
61205;BME280;47068;55.780;37.520;2023-04-16T04:59:43;101411.56;;;8.97;23.07
61205;BME280;47068;55.780;37.520;2023-04-16T05:02:08;101424.81;;;9.21;22.88
61205;BME280;47068;55.780;37.520;2023-04-16T05:04:34;101422.50;;;9.40;22.27
61205;BME280;47068;55.780;37.520;2023-04-16T05:06:59;101419.28;;;9.48;22.63
61205;BME280;47068;55.780;37.520;2023-04-16T05:09:25;101423.34;;;9.76;22.63
61205;BME280;47068;55.780;37.520;2023-04-16T05:11:52;101434.91;;;9.99;21.63
61205;BME280;47068;55.780;37.520;2023-04-16T05:14:17;101434.41;;;10.05;21.19
61205;BME280;47068;55.780;37.520;2023-04-16T05:16:43;101437.53;;;10.22;21.59
61205;BME280;47068;55.780;37.520;2023-04-16T05:19:08;101400.47;;;10.08;20.73
61205;BME280;47068;55.780;37.520;2023-04-16T05:21:43;101431.22;;;10.46;20.98
61205;BME280;47068;55.780;37.520;2023-04-16T05:24:08;101409.25;;;11.09;19.73
61205;BME280;47068;55.780;37.520;2023-04-16T05:26:33;101422.56;;;11.73;19.16
61205;BME280;47068;55.780;37.520;2023-04-16T05:28:59;101422.50;;;12.66;18.54
61205;BME280;47068;55.780;37.520;2023-04-16T05:31:25;101421.13;;;13.78;17.31
61205;BME280;47068;55.780;37.520;2023-04-16T05:33:50;101405.31;;;15.06;16.28
61205;BME280;47068;55.780;37.520;2023-04-16T05:36:16;101425.69;;;15.61;15.80
61205;BME280;47068;55.780;37.520;2023-04-16T05:38:41;101416.63;;;16.32;15.18
61205;BME280;47068;55.780;37.520;2023-04-16T05:41:07;101415.53;;;16.17;15.02
61205;BME280;47068;55.780;37.520;2023-04-16T05:43:32;101409.47;;;15.89;15.25
61205;BME280;47068;55.780;37.520;2023-04-16T05:45:58;101405.81;;;15.98;15.61
61205;BME280;47068;55.780;37.520;2023-04-16T05:48:23;101407.22;;;16.62;15.32
61205;BME280;47068;55.780;37.520;2023-04-16T05:50:49;101396.59;;;16.94;15.01
61205;BME280;47068;55.780;37.520;2023-04-16T05:53:15;101391.94;;;17.12;15.11
61205;BME280;47068;55.780;37.520;2023-04-16T05:55:43;101398.81;;;17.23;15.18
61205;BME280;47068;55.780;37.520;2023-04-16T05:58:09;101371.81;;;16.40;14.82
61205;BME280;47068;55.780;37.520;2023-04-16T06:00:34;101390.72;;;16.23;14.80
61205;BME280;47068;55.780;37.520;2023-04-16T06:03:01;101383.94;;;16.19;15.04
61205;BME280;47068;55.780;37.520;2023-04-16T06:05:26;101353.22;;;16.13;14.36
61205;BME280;47068;55.780;37.520;2023-04-16T06:07:52;101388.31;;;16.79;14.47
61205;BME280;47068;55.780;37.520;2023-04-16T06:10:17;101387.88;;;19.08;15.21
61205;BME280;47068;55.780;37.520;2023-04-16T06:12:43;101387.66;;;21.25;11.67
61205;BME280;47068;55.780;37.520;2023-04-16T06:15:08;101376.75;;;21.39;11.81
61205;BME280;47068;55.780;37.520;2023-04-16T06:17:34;101380.81;;;23.15;10.49
61205;BME280;47068;55.780;37.520;2023-04-16T06:20:00;101377.41;;;22.53;10.03
61205;BME280;47068;55.780;37.520;2023-04-16T06:22:25;101345.41;;;22.42;10.64
61205;BME280;47068;55.780;37.520;2023-04-16T06:24:52;101383.75;;;23.34;9.53
61205;BME280;47068;55.780;37.520;2023-04-16T06:27:17;101386.13;;;23.63;9.48
61205;BME280;47068;55.780;37.520;2023-04-16T06:29:43;101379.50;;;22.51;10.02
61205;BME280;47068;55.780;37.520;2023-04-16T06:32:08;101381.88;;;23.28;10.31
61205;BME280;47068;55.780;37.520;2023-04-16T06:34:34;101369.56;;;24.11;10.61
61205;BME280;47068;55.780;37.520;2023-04-16T06:36:59;101370.81;;;24.92;8.99
61205;BME280;47068;55.780;37.520;2023-04-16T06:39:25;101372.50;;;25.25;8.62
61205;BME280;47068;55.780;37.520;2023-04-16T06:41:50;101366.84;;;26.44;7.99
61205;BME280;47068;55.780;37.520;2023-04-16T06:44:16;101361.44;;;26.19;9.00
61205;BME280;47068;55.780;37.520;2023-04-16T06:46:41;101361.59;;;24.87;8.37
61205;BME280;47068;55.780;37.520;2023-04-16T06:49:08;101368.44;;;22.93;9.35
61205;BME280;47068;55.780;37.520;2023-04-16T06:51:33;101352.06;;;22.32;10.09
61205;BME280;47068;55.780;37.520;2023-04-16T06:53:59;101352.50;;;22.77;9.99
61205;BME280;47068;55.780;37.520;2023-04-16T06:56:24;101353.19;;;21.82;9.98
61205;BME280;47068;55.780;37.520;2023-04-16T06:58:50;101360.19;;;20.92;10.65
61205;BME280;47068;55.780;37.520;2023-04-16T07:01:16;101350.19;;;20.56;11.05
61205;BME280;47068;55.780;37.520;2023-04-16T07:03:41;101350.69;;;20.60;11.28
61205;BME280;47068;55.780;37.520;2023-04-16T07:06:07;101358.44;;;21.63;10.88
61205;BME280;47068;55.780;37.520;2023-04-16T07:08:32;101359.13;;;21.43;10.14
61205;BME280;47068;55.780;37.520;2023-04-16T07:10:58;101357.34;;;20.78;9.97
61205;BME280;47068;55.780;37.520;2023-04-16T07:13:23;101347.97;;;20.60;11.03
61205;BME280;47068;55.780;37.520;2023-04-16T07:15:50;101354.09;;;21.04;10.83
61205;BME280;47068;55.780;37.520;2023-04-16T07:18:15;101359.59;;;22.03;10.00
61205;BME280;47068;55.780;37.520;2023-04-16T07:20:41;101376.22;;;23.23;8.86
61205;BME280;47068;55.780;37.520;2023-04-16T07:23:06;101357.84;;;23.38;8.80
61205;BME280;47068;55.780;37.520;2023-04-16T07:25:31;101370.13;;;23.07;8.98
61205;BME280;47068;55.780;37.520;2023-04-16T07:27:57;101355.56;;;21.21;9.79
61205;BME280;47068;55.780;37.520;2023-04-16T07:30:22;101366.59;;;19.58;11.03
61205;BME280;47068;55.780;37.520;2023-04-16T07:32:48;101362.31;;;18.65;11.81
61205;BME280;47068;55.780;37.520;2023-04-16T07:35:15;101363.88;;;17.63;12.28
61205;BME280;47068;55.780;37.520;2023-04-16T07:37:40;101365.38;;;16.59;12.91
61205;BME280;47068;55.780;37.520;2023-04-16T07:40:06;101371.84;;;16.14;13.34
61205;BME280;47068;55.780;37.520;2023-04-16T07:42:32;101364.16;;;16.20;13.33
61205;BME280;47068;55.780;37.520;2023-04-16T07:44:57;101367.47;;;16.73;13.61
61205;BME280;47068;55.780;37.520;2023-04-16T07:47:23;101363.09;;;19.04;11.88
61205;BME280;47068;55.780;37.520;2023-04-16T07:49:50;101357.69;;;21.26;10.76
61205;BME280;47068;55.780;37.520;2023-04-16T07:52:16;101349.94;;;21.44;9.79
61205;BME280;47068;55.780;37.520;2023-04-16T07:54:41;101331.66;;;20.53;10.50
61205;BME280;47068;55.780;37.520;2023-04-16T07:57:07;101330.06;;;20.15;10.99
61205;BME280;47068;55.780;37.520;2023-04-16T07:59:32;101338.84;;;20.82;10.38
61205;BME280;47068;55.780;37.520;2023-04-16T08:01:58;101335.19;;;20.24;10.31
61205;BME280;47068;55.780;37.520;2023-04-16T08:04:23;101340.28;;;19.15;11.19
61205;BME280;47068;55.780;37.520;2023-04-16T08:06:50;101349.41;;;17.89;11.56
61205;BME280;47068;55.780;37.520;2023-04-16T08:09:16;101341.66;;;17.13;12.17
61205;BME280;47068;55.780;37.520;2023-04-16T08:11:41;101340.78;;;16.04;13.07
61205;BME280;47068;55.780;37.520;2023-04-16T08:14:07;101333.75;;;15.85;13.44
61205;BME280;47068;55.780;37.520;2023-04-16T08:16:32;101336.31;;;16.21;13.50
61205;BME280;47068;55.780;37.520;2023-04-16T08:18:58;101335.38;;;16.38;13.30
61205;BME280;47068;55.780;37.520;2023-04-16T08:21:32;101351.03;;;16.08;12.23
61205;BME280;47068;55.780;37.520;2023-04-16T08:23:58;101315.22;;;15.30;13.07
61205;BME280;47068;55.780;37.520;2023-04-16T08:26:23;101269.59;;;15.05;13.51
61205;BME280;47068;55.780;37.520;2023-04-16T08:28:51;101340.34;;;14.76;13.50
61205;BME280;47068;55.780;37.520;2023-04-16T08:31:16;101307.59;;;14.28;13.79
61205;BME280;47068;55.780;37.520;2023-04-16T08:33:42;101315.41;;;14.48;13.69
61205;BME280;47068;55.780;37.520;2023-04-16T08:36:07;101294.81;;;14.49;13.87
61205;BME280;47068;55.780;37.520;2023-04-16T08:38:33;101316.06;;;14.78;13.36
61205;BME280;47068;55.780;37.520;2023-04-16T08:41:02;101321.94;;;14.36;13.43
61205;BME280;47068;55.780;37.520;2023-04-16T08:43:32;101301.13;;;14.30;13.64
61205;BME280;47068;55.780;37.520;2023-04-16T08:45:59;101268.97;;;13.75;13.53
61205;BME280;47068;55.780;37.520;2023-04-16T08:48:28;101298.31;;;13.95;13.50
61205;BME280;47068;55.780;37.520;2023-04-16T08:50:58;101299.28;;;14.31;13.72
61205;BME280;47068;55.780;37.520;2023-04-16T08:53:32;101304.88;;;14.65;13.74
61205;BME280;47068;55.780;37.520;2023-04-16T08:56:03;101291.03;;;14.69;12.99
61205;BME280;47068;55.780;37.520;2023-04-16T08:58:30;101289.56;;;14.75;13.80
61205;BME280;47068;55.780;37.520;2023-04-16T09:00:59;101287.56;;;14.59;12.85
61205;BME280;47068;55.780;37.520;2023-04-16T09:03:25;101296.03;;;14.00;16.02
61205;BME280;47068;55.780;37.520;2023-04-16T09:05:53;101287.25;;;13.70;15.54
61205;BME280;47068;55.780;37.520;2023-04-16T09:08:19;101290.63;;;13.82;15.96
61205;BME280;47068;55.780;37.520;2023-04-16T09:10:45;101299.41;;;14.02;15.49
61205;BME280;47068;55.780;37.520;2023-04-16T09:13:14;101294.84;;;14.67;17.54
61205;BME280;47068;55.780;37.520;2023-04-16T09:15:42;101286.91;;;14.92;14.07
61205;BME280;47068;55.780;37.520;2023-04-16T09:18:08;101286.59;;;14.78;13.83
61205;BME280;47068;55.780;37.520;2023-04-16T09:20:36;101280.22;;;14.43;13.13
61205;BME280;47068;55.780;37.520;2023-04-16T09:23:02;101278.97;;;14.01;13.95
61205;BME280;47068;55.780;37.520;2023-04-16T09:25:32;101275.50;;;13.91;14.38
61205;BME280;47068;55.780;37.520;2023-04-16T09:27:57;101271.56;;;14.22;14.12
61205;BME280;47068;55.780;37.520;2023-04-16T09:30:25;101283.16;;;14.13;14.22
61205;BME280;47068;55.780;37.520;2023-04-16T09:32:52;101244.91;;;14.03;14.28
61205;BME280;47068;55.780;37.520;2023-04-16T09:35:50;101290.78;;;14.45;14.33
61205;BME280;47068;55.780;37.520;2023-04-16T09:38:16;101292.22;;;14.02;14.34
61205;BME280;47068;55.780;37.520;2023-04-16T09:40:42;101236.94;;;14.11;15.41
61205;BME280;47068;55.780;37.520;2023-04-16T09:43:17;101278.75;;;14.67;13.22
61205;BME280;47068;55.780;37.520;2023-04-16T09:45:50;101283.47;;;15.00;14.88
61205;BME280;47068;55.780;37.520;2023-04-16T09:48:36;101280.03;;;14.72;13.41
61205;BME280;47068;55.780;37.520;2023-04-16T09:51:05;101271.53;;;14.77;14.12
61205;BME280;47068;55.780;37.520;2023-04-16T09:53:31;101262.47;;;15.13;14.58
61205;BME280;47068;55.780;37.520;2023-04-16T09:56:00;101272.50;;;15.11;13.58
61205;BME280;47068;55.780;37.520;2023-04-16T09:58:27;101268.03;;;15.63;15.39
61205;BME280;47068;55.780;37.520;2023-04-16T10:01:11;101240.59;;;16.03;14.37
61205;BME280;47068;55.780;37.520;2023-04-16T10:03:41;101249.66;;;15.76;12.91
61205;BME280;47068;55.780;37.520;2023-04-16T10:08:34;101271.25;;;14.52;14.03
61205;BME280;47068;55.780;37.520;2023-04-16T10:11:01;101266.41;;;14.66;13.91
61205;BME280;47068;55.780;37.520;2023-04-16T10:13:26;101214.84;;;14.54;14.21
61205;BME280;47068;55.780;37.520;2023-04-16T10:15:55;101254.56;;;15.12;15.04
61205;BME280;47068;55.780;37.520;2023-04-16T10:18:22;101252.75;;;15.38;14.02
61205;BME280;47068;55.780;37.520;2023-04-16T10:20:49;101260.31;;;15.60;14.21
61205;BME280;47068;55.780;37.520;2023-04-16T10:23:14;101230.84;;;15.68;13.48
61205;BME280;47068;55.780;37.520;2023-04-16T10:25:41;101258.41;;;15.79;14.70
61205;BME280;47068;55.780;37.520;2023-04-16T10:28:08;101246.56;;;15.97;14.01
61205;BME280;47068;55.780;37.520;2023-04-16T10:30:34;101245.97;;;16.11;14.44
61205;BME280;47068;55.780;37.520;2023-04-16T10:33:03;101228.53;;;16.15;13.84
61205;BME280;47068;55.780;37.520;2023-04-16T10:35:29;101244.06;;;16.54;14.44
61205;BME280;47068;55.780;37.520;2023-04-16T10:37:56;101249.78;;;16.51;13.15
61205;BME280;47068;55.780;37.520;2023-04-16T10:40:26;101239.22;;;15.99;13.41
61205;BME280;47068;55.780;37.520;2023-04-16T10:42:58;101254.81;;;15.70;12.96
61205;BME280;47068;55.780;37.520;2023-04-16T10:45:51;101252.63;;;15.22;13.42
61205;BME280;47068;55.780;37.520;2023-04-16T10:48:18;101203.06;;;15.00;13.58
61205;BME280;47068;55.780;37.520;2023-04-16T10:50:53;101235.91;;;14.84;13.46
61205;BME280;47068;55.780;37.520;2023-04-16T10:53:25;101240.03;;;14.16;13.63
61205;BME280;47068;55.780;37.520;2023-04-16T10:58:30;101238.13;;;13.25;14.46
61205;BME280;47068;55.780;37.520;2023-04-16T11:00:58;101216.34;;;13.20;14.69
61205;BME280;47068;55.780;37.520;2023-04-16T11:03:24;101235.78;;;13.49;14.28
61205;BME280;47068;55.780;37.520;2023-04-16T11:05:50;101238.63;;;13.48;14.64
61205;BME280;47068;55.780;37.520;2023-04-16T11:08:16;101233.47;;;13.73;14.86
61205;BME280;47068;55.780;37.520;2023-04-16T11:10:41;101238.22;;;13.79;14.63
61205;BME280;47068;55.780;37.520;2023-04-16T11:13:07;101238.00;;;13.63;14.79
61205;BME280;47068;55.780;37.520;2023-04-16T11:15:33;101219.06;;;13.47;15.22
61205;BME280;47068;55.780;37.520;2023-04-16T11:17:59;101202.47;;;13.44;14.71
61205;BME280;47068;55.780;37.520;2023-04-16T11:20:26;101211.69;;;13.68;14.14
61205;BME280;47068;55.780;37.520;2023-04-16T11:22:56;101221.44;;;13.87;14.81
61205;BME280;47068;55.780;37.520;2023-04-16T11:27:51;101211.56;;;14.15;14.99
61205;BME280;47068;55.780;37.520;2023-04-16T11:30:18;101203.59;;;14.05;14.51
61205;BME280;47068;55.780;37.520;2023-04-16T11:32:52;101212.72;;;14.12;15.22
61205;BME280;47068;55.780;37.520;2023-04-16T11:35:18;101206.59;;;14.02;14.99
61205;BME280;47068;55.780;37.520;2023-04-16T11:37:44;101194.47;;;13.98;14.70
61205;BME280;47068;55.780;37.520;2023-04-16T11:40:10;101197.28;;;13.97;14.37
61205;BME280;47068;55.780;37.520;2023-04-16T11:42:37;101182.19;;;13.78;14.33
61205;BME280;47068;55.780;37.520;2023-04-16T11:45:08;101196.56;;;13.77;14.91
61205;BME280;47068;55.780;37.520;2023-04-16T11:47:48;101201.59;;;13.90;14.85
61205;BME280;47068;55.780;37.520;2023-04-16T11:50:21;101186.03;;;14.03;15.49
61205;BME280;47068;55.780;37.520;2023-04-16T11:52:49;101179.00;;;14.19;15.04
61205;BME280;47068;55.780;37.520;2023-04-16T11:55:14;101158.13;;;14.23;15.34
61205;BME280;47068;55.780;37.520;2023-04-16T11:57:40;101177.16;;;14.20;15.78
61205;BME280;47068;55.780;37.520;2023-04-16T12:00:06;101173.56;;;14.11;14.78
61205;BME280;47068;55.780;37.520;2023-04-16T12:02:49;101179.56;;;14.23;15.20
61205;BME280;47068;55.780;37.520;2023-04-16T12:05:35;101177.16;;;14.20;14.54
61205;BME280;47068;55.780;37.520;2023-04-16T12:08:11;101181.75;;;14.10;14.41
61205;BME280;47068;55.780;37.520;2023-04-16T12:10:54;101170.06;;;13.84;14.72
61205;BME280;47068;55.780;37.520;2023-04-16T12:13:20;101159.28;;;13.75;14.82
61205;BME280;47068;55.780;37.520;2023-04-16T12:15:48;101161.63;;;13.78;14.33
61205;BME280;47068;55.780;37.520;2023-04-16T12:18:15;101161.47;;;13.90;14.71
61205;BME280;47068;55.780;37.520;2023-04-16T12:20:41;101160.16;;;13.94;14.78
61205;BME280;47068;55.780;37.520;2023-04-16T12:23:07;101143.34;;;14.01;15.19
61205;BME280;47068;55.780;37.520;2023-04-16T12:25:35;101131.94;;;13.82;14.80
61205;BME280;47068;55.780;37.520;2023-04-16T12:28:01;101145.78;;;13.95;14.92
61205;BME280;47068;55.780;37.520;2023-04-16T12:30:27;101149.13;;;13.97;14.99
61205;BME280;47068;55.780;37.520;2023-04-16T12:33:14;101144.19;;;14.02;15.03
61205;BME280;47068;55.780;37.520;2023-04-16T12:35:40;101138.69;;;14.03;15.08
61205;BME280;47068;55.780;37.520;2023-04-16T12:38:07;101137.53;;;14.06;14.70
61205;BME280;47068;55.780;37.520;2023-04-16T12:40:33;101101.28;;;13.94;15.64
61205;BME280;47068;55.780;37.520;2023-04-16T12:43:02;101126.78;;;14.15;15.05
61205;BME280;47068;55.780;37.520;2023-04-16T12:45:28;101125.59;;;14.18;14.85
61205;BME280;47068;55.780;37.520;2023-04-16T12:47:53;101122.50;;;14.23;15.16
61205;BME280;47068;55.780;37.520;2023-04-16T12:50:20;101090.06;;;14.08;14.84